sensor_id;sensor_type;location;lat;lon;timestamp;P1;durP1;ratioP1;P2;durP2;ratioP2
1350;SDS011;669;50.206;9.998;2022-10-30T00:00:33;4.00;;;3.70;;
1350;SDS011;669;50.206;9.998;2022-10-30T00:03:01;3.37;;;3.13;;
1350;SDS011;669;50.206;9.998;2022-10-30T00:05:29;4.43;;;4.00;;
1350;SDS011;669;50.206;9.998;2022-10-30T00:07:57;3.93;;;3.63;;
1350;SDS011;669;50.206;9.998;2022-10-30T00:10:26;4.50;;;4.10;;
1350;SDS011;669;50.206;9.998;2022-10-30T00:12:55;4.23;;;3.93;;
1350;SDS011;669;50.206;9.998;2022-10-30T00:15:23;5.03;;;4.63;;
1350;SDS011;669;50.206;9.998;2022-10-30T00:17:51;6.17;;;4.70;;
1350;SDS011;669;50.206;9.998;2022-10-30T00:20:20;5.53;;;4.53;;
1350;SDS011;669;50.206;9.998;2022-10-30T00:22:48;6.10;;;5.20;;
1350;SDS011;669;50.206;9.998;2022-10-30T00:25:15;5.57;;;4.80;;
1350;SDS011;669;50.206;9.998;2022-10-30T00:27:44;4.47;;;4.07;;
1350;SDS011;669;50.206;9.998;2022-10-30T00:30:13;6.73;;;4.63;;
1350;SDS011;669;50.206;9.998;2022-10-30T00:32:41;10.00;;;4.73;;
1350;SDS011;669;50.206;9.998;2022-10-30T00:35:09;4.93;;;3.87;;
1350;SDS011;669;50.206;9.998;2022-10-30T00:37:38;5.00;;;4.50;;
1350;SDS011;669;50.206;9.998;2022-10-30T00:40:06;5.37;;;4.83;;
1350;SDS011;669;50.206;9.998;2022-10-30T00:42:36;6.33;;;3.90;;
1350;SDS011;669;50.206;9.998;2022-10-30T00:45:04;4.63;;;4.17;;
1350;SDS011;669;50.206;9.998;2022-10-30T00:47:35;4.20;;;3.90;;
1350;SDS011;669;50.206;9.998;2022-10-30T00:50:06;5.50;;;4.70;;
1350;SDS011;669;50.206;9.998;2022-10-30T00:52:38;5.00;;;4.20;;
1350;SDS011;669;50.206;9.998;2022-10-30T00:55:10;5.23;;;4.20;;
1350;SDS011;669;50.206;9.998;2022-10-30T00:57:41;4.30;;;3.90;;
1350;SDS011;669;50.206;9.998;2022-10-30T01:00:10;7.00;;;4.40;;
1350;SDS011;669;50.206;9.998;2022-10-30T01:02:42;4.63;;;4.23;;
1350;SDS011;669;50.206;9.998;2022-10-30T01:05:11;4.50;;;3.70;;
1350;SDS011;669;50.206;9.998;2022-10-30T01:07:42;7.83;;;4.17;;
1350;SDS011;669;50.206;9.998;2022-10-30T01:10:10;3.87;;;3.57;;
1350;SDS011;669;50.206;9.998;2022-10-30T01:12:39;4.83;;;4.33;;
1350;SDS011;669;50.206;9.998;2022-10-30T01:15:09;4.03;;;3.70;;
1350;SDS011;669;50.206;9.998;2022-10-30T01:17:53;7.50;;;5.60;;
1350;SDS011;669;50.206;9.998;2022-10-30T01:23:25;5.93;;;5.43;;
1350;SDS011;669;50.206;9.998;2022-10-30T01:26:02;8.83;;;5.00;;
1350;SDS011;669;50.206;9.998;2022-10-30T01:28:39;4.80;;;4.40;;
1350;SDS011;669;50.206;9.998;2022-10-30T01:31:24;7.07;;;4.50;;
1350;SDS011;669;50.206;9.998;2022-10-30T01:34:08;4.63;;;3.83;;
1350;SDS011;669;50.206;9.998;2022-10-30T01:36:45;5.83;;;4.93;;
1350;SDS011;669;50.206;9.998;2022-10-30T01:39:17;4.60;;;4.20;;
1350;SDS011;669;50.206;9.998;2022-10-30T01:41:48;5.07;;;4.20;;
1350;SDS011;669;50.206;9.998;2022-10-30T01:44:17;4.13;;;3.70;;
1350;SDS011;669;50.206;9.998;2022-10-30T01:46:54;4.40;;;3.87;;
1350;SDS011;669;50.206;9.998;2022-10-30T01:49:41;4.50;;;4.13;;
1350;SDS011;669;50.206;9.998;2022-10-30T01:52:39;6.23;;;4.30;;
1350;SDS011;669;50.206;9.998;2022-10-30T01:55:15;7.30;;;4.37;;
1350;SDS011;669;50.206;9.998;2022-10-30T01:57:53;5.23;;;4.23;;
1350;SDS011;669;50.206;9.998;2022-10-30T02:00:27;4.30;;;3.90;;
1350;SDS011;669;50.206;9.998;2022-10-30T02:02:55;3.90;;;3.60;;
1350;SDS011;669;50.206;9.998;2022-10-30T02:05:26;4.93;;;4.53;;
1350;SDS011;669;50.206;9.998;2022-10-30T02:07:58;5.63;;;4.30;;
1350;SDS011;669;50.206;9.998;2022-10-30T02:10:28;4.77;;;4.37;;
1350;SDS011;669;50.206;9.998;2022-10-30T02:12:57;4.70;;;4.30;;
1350;SDS011;669;50.206;9.998;2022-10-30T02:15:25;5.10;;;4.60;;
1350;SDS011;669;50.206;9.998;2022-10-30T02:17:53;4.37;;;3.97;;
1350;SDS011;669;50.206;9.998;2022-10-30T02:20:24;5.17;;;4.77;;
1350;SDS011;669;50.206;9.998;2022-10-30T02:22:53;4.90;;;4.53;;
1350;SDS011;669;50.206;9.998;2022-10-30T02:25:25;5.10;;;4.70;;
1350;SDS011;669;50.206;9.998;2022-10-30T02:27:53;6.93;;;4.40;;
1350;SDS011;669;50.206;9.998;2022-10-30T02:30:21;4.50;;;4.10;;
1350;SDS011;669;50.206;9.998;2022-10-30T02:32:48;6.00;;;4.80;;
1350;SDS011;669;50.206;9.998;2022-10-30T02:35:16;4.80;;;4.40;;
1350;SDS011;669;50.206;9.998;2022-10-30T02:37:47;5.23;;;4.73;;
1350;SDS011;669;50.206;9.998;2022-10-30T02:40:15;4.73;;;4.30;;
1350;SDS011;669;50.206;9.998;2022-10-30T02:42:44;4.60;;;4.00;;
1350;SDS011;669;50.206;9.998;2022-10-30T02:45:17;4.20;;;3.30;;
1350;SDS011;669;50.206;9.998;2022-10-30T02:47:45;3.30;;;3.10;;
1350;SDS011;669;50.206;9.998;2022-10-30T02:50:13;3.70;;;3.40;;
1350;SDS011;669;50.206;9.998;2022-10-30T02:52:41;4.23;;;3.90;;
1350;SDS011;669;50.206;9.998;2022-10-30T02:55:10;3.30;;;3.10;;
1350;SDS011;669;50.206;9.998;2022-10-30T02:57:38;3.77;;;3.47;;
1350;SDS011;669;50.206;9.998;2022-10-30T03:00:06;3.50;;;3.20;;
1350;SDS011;669;50.206;9.998;2022-10-30T03:02:35;3.07;;;2.87;;
1350;SDS011;669;50.206;9.998;2022-10-30T03:05:03;3.00;;;2.80;;
1350;SDS011;669;50.206;9.998;2022-10-30T03:07:31;2.47;;;2.37;;
1350;SDS011;669;50.206;9.998;2022-10-30T03:09:59;2.37;;;2.27;;
1350;SDS011;669;50.206;9.998;2022-10-30T03:12:29;2.60;;;2.50;;
1350;SDS011;669;50.206;9.998;2022-10-30T03:14:56;2.93;;;2.73;;
1350;SDS011;669;50.206;9.998;2022-10-30T03:17:24;3.10;;;2.90;;
1350;SDS011;669;50.206;9.998;2022-10-30T03:19:52;2.67;;;2.57;;
1350;SDS011;669;50.206;9.998;2022-10-30T03:22:20;2.33;;;2.13;;
1350;SDS011;669;50.206;9.998;2022-10-30T03:24:48;2.60;;;2.40;;
1350;SDS011;669;50.206;9.998;2022-10-30T03:27:16;3.63;;;3.33;;
1350;SDS011;669;50.206;9.998;2022-10-30T03:29:45;3.33;;;3.13;;
1350;SDS011;669;50.206;9.998;2022-10-30T03:32:13;2.63;;;2.43;;
1350;SDS011;669;50.206;9.998;2022-10-30T03:34:41;2.90;;;2.70;;
1350;SDS011;669;50.206;9.998;2022-10-30T03:37:09;2.70;;;2.53;;
1350;SDS011;669;50.206;9.998;2022-10-30T03:39:37;3.47;;;3.17;;
1350;SDS011;669;50.206;9.998;2022-10-30T03:42:05;3.00;;;2.80;;
1350;SDS011;669;50.206;9.998;2022-10-30T03:44:33;4.53;;;3.73;;
1350;SDS011;669;50.206;9.998;2022-10-30T03:47:02;4.00;;;3.40;;
1350;SDS011;669;50.206;9.998;2022-10-30T03:49:30;2.83;;;2.67;;
1350;SDS011;669;50.206;9.998;2022-10-30T03:51:58;3.60;;;3.30;;
1350;SDS011;669;50.206;9.998;2022-10-30T03:54:26;3.27;;;3.07;;
1350;SDS011;669;50.206;9.998;2022-10-30T03:56:54;3.40;;;3.20;;
1350;SDS011;669;50.206;9.998;2022-10-30T03:59:22;9.53;;;5.47;;
1350;SDS011;669;50.206;9.998;2022-10-30T04:01:49;4.83;;;4.43;;
1350;SDS011;669;50.206;9.998;2022-10-30T04:04:19;4.67;;;4.27;;
1350;SDS011;669;50.206;9.998;2022-10-30T04:06:47;5.17;;;4.67;;
1350;SDS011;669;50.206;9.998;2022-10-30T04:09:15;4.43;;;4.03;;
1350;SDS011;669;50.206;9.998;2022-10-30T04:11:43;4.00;;;3.70;;
1350;SDS011;669;50.206;9.998;2022-10-30T04:14:11;4.53;;;4.10;;
1350;SDS011;669;50.206;9.998;2022-10-30T04:16:38;5.37;;;4.20;;
1350;SDS011;669;50.206;9.998;2022-10-30T04:19:06;4.20;;;3.90;;
1350;SDS011;669;50.206;9.998;2022-10-30T04:21:36;3.53;;;3.33;;
1350;SDS011;669;50.206;9.998;2022-10-30T04:24:04;3.57;;;3.27;;
1350;SDS011;669;50.206;9.998;2022-10-30T04:26:32;3.20;;;2.90;;
1350;SDS011;669;50.206;9.998;2022-10-30T04:29:00;3.60;;;3.30;;
1350;SDS011;669;50.206;9.998;2022-10-30T04:31:28;3.30;;;3.03;;
1350;SDS011;669;50.206;9.998;2022-10-30T04:33:56;3.80;;;3.50;;
1350;SDS011;669;50.206;9.998;2022-10-30T04:36:24;4.53;;;4.13;;
1350;SDS011;669;50.206;9.998;2022-10-30T04:38:57;3.20;;;3.00;;
1350;SDS011;669;50.206;9.998;2022-10-30T04:41:25;3.73;;;3.53;;
1350;SDS011;669;50.206;9.998;2022-10-30T04:43:52;3.47;;;3.27;;
1350;SDS011;669;50.206;9.998;2022-10-30T04:46:20;3.93;;;3.40;;
1350;SDS011;669;50.206;9.998;2022-10-30T04:48:48;4.17;;;3.80;;
1350;SDS011;669;50.206;9.998;2022-10-30T04:51:17;3.20;;;3.00;;
1350;SDS011;669;50.206;9.998;2022-10-30T04:53:45;3.30;;;3.10;;
1350;SDS011;669;50.206;9.998;2022-10-30T04:56:14;3.23;;;3.03;;
1350;SDS011;669;50.206;9.998;2022-10-30T04:58:42;3.10;;;2.90;;
1350;SDS011;669;50.206;9.998;2022-10-30T05:01:10;3.10;;;2.90;;
1350;SDS011;669;50.206;9.998;2022-10-30T05:03:38;3.00;;;2.80;;
1350;SDS011;669;50.206;9.998;2022-10-30T05:06:10;3.50;;;3.13;;
1350;SDS011;669;50.206;9.998;2022-10-30T05:08:43;3.70;;;3.40;;
1350;SDS011;669;50.206;9.998;2022-10-30T05:11:11;3.50;;;3.30;;
1350;SDS011;669;50.206;9.998;2022-10-30T05:13:40;3.40;;;3.10;;
1350;SDS011;669;50.206;9.998;2022-10-30T05:16:08;3.50;;;3.03;;
1350;SDS011;669;50.206;9.998;2022-10-30T05:18:36;4.47;;;4.07;;
1350;SDS011;669;50.206;9.998;2022-10-30T05:21:04;3.20;;;3.00;;
1350;SDS011;669;50.206;9.998;2022-10-30T05:23:32;2.93;;;2.73;;
1350;SDS011;669;50.206;9.998;2022-10-30T05:26:00;2.97;;;2.77;;
1350;SDS011;669;50.206;9.998;2022-10-30T05:28:28;2.83;;;2.73;;
1350;SDS011;669;50.206;9.998;2022-10-30T05:30:57;3.03;;;2.83;;
1350;SDS011;669;50.206;9.998;2022-10-30T05:33:25;3.17;;;2.97;;
1350;SDS011;669;50.206;9.998;2022-10-30T05:35:53;2.10;;;2.00;;
1350;SDS011;669;50.206;9.998;2022-10-30T05:38:21;2.40;;;2.30;;
1350;SDS011;669;50.206;9.998;2022-10-30T05:40:49;2.50;;;2.40;;
1350;SDS011;669;50.206;9.998;2022-10-30T05:43:17;3.00;;;2.80;;
1350;SDS011;669;50.206;9.998;2022-10-30T05:45:47;4.40;;;3.70;;
1350;SDS011;669;50.206;9.998;2022-10-30T05:48:16;3.63;;;3.33;;
1350;SDS011;669;50.206;9.998;2022-10-30T05:50:44;3.40;;;2.90;;
1350;SDS011;669;50.206;9.998;2022-10-30T05:53:12;2.63;;;2.50;;
1350;SDS011;669;50.206;9.998;2022-10-30T05:55:40;2.60;;;2.50;;
1350;SDS011;669;50.206;9.998;2022-10-30T05:58:08;2.53;;;2.43;;
1350;SDS011;669;50.206;9.998;2022-10-30T06:00:36;2.07;;;1.97;;
1350;SDS011;669;50.206;9.998;2022-10-30T06:03:06;2.20;;;2.10;;
1350;SDS011;669;50.206;9.998;2022-10-30T06:05:38;2.50;;;2.40;;
1350;SDS011;669;50.206;9.998;2022-10-30T06:08:06;4.20;;;3.80;;
1350;SDS011;669;50.206;9.998;2022-10-30T06:10:34;3.20;;;3.00;;
1350;SDS011;669;50.206;9.998;2022-10-30T06:13:03;2.93;;;2.73;;
1350;SDS011;669;50.206;9.998;2022-10-30T06:15:32;3.00;;;2.80;;
1350;SDS011;669;50.206;9.998;2022-10-30T06:18:00;2.77;;;2.43;;
1350;SDS011;669;50.206;9.998;2022-10-30T06:20:28;2.90;;;2.70;;
1350;SDS011;669;50.206;9.998;2022-10-30T06:22:59;2.40;;;2.30;;
1350;SDS011;669;50.206;9.998;2022-10-30T06:25:28;2.13;;;2.03;;
1350;SDS011;669;50.206;9.998;2022-10-30T06:28:03;2.60;;;2.50;;
1350;SDS011;669;50.206;9.998;2022-10-30T06:30:31;2.40;;;2.30;;
1350;SDS011;669;50.206;9.998;2022-10-30T06:33:00;3.43;;;3.13;;
1350;SDS011;669;50.206;9.998;2022-10-30T06:35:28;3.20;;;3.00;;
1350;SDS011;669;50.206;9.998;2022-10-30T06:37:58;3.20;;;3.00;;
1350;SDS011;669;50.206;9.998;2022-10-30T06:40:26;2.57;;;2.47;;
1350;SDS011;669;50.206;9.998;2022-10-30T06:42:55;2.10;;;2.00;;
1350;SDS011;669;50.206;9.998;2022-10-30T06:45:24;2.17;;;2.07;;
1350;SDS011;669;50.206;9.998;2022-10-30T06:47:52;2.77;;;2.50;;
1350;SDS011;669;50.206;9.998;2022-10-30T06:50:21;2.53;;;2.33;;
1350;SDS011;669;50.206;9.998;2022-10-30T06:52:49;2.40;;;2.30;;
1350;SDS011;669;50.206;9.998;2022-10-30T06:55:18;2.20;;;2.10;;
1350;SDS011;669;50.206;9.998;2022-10-30T06:57:51;2.10;;;2.00;;
1350;SDS011;669;50.206;9.998;2022-10-30T07:00:21;2.70;;;2.50;;
1350;SDS011;669;50.206;9.998;2022-10-30T07:02:56;2.20;;;2.10;;
1350;SDS011;669;50.206;9.998;2022-10-30T07:05:25;2.03;;;1.93;;
1350;SDS011;669;50.206;9.998;2022-10-30T07:07:54;3.40;;;3.20;;
1350;SDS011;669;50.206;9.998;2022-10-30T07:10:24;2.20;;;2.10;;
1350;SDS011;669;50.206;9.998;2022-10-30T07:12:53;2.40;;;2.30;;
1350;SDS011;669;50.206;9.998;2022-10-30T07:15:22;3.10;;;2.90;;
1350;SDS011;669;50.206;9.998;2022-10-30T07:17:51;3.33;;;3.13;;
1350;SDS011;669;50.206;9.998;2022-10-30T07:20:20;4.60;;;3.20;;
1350;SDS011;669;50.206;9.998;2022-10-30T07:22:49;3.60;;;3.30;;
1350;SDS011;669;50.206;9.998;2022-10-30T07:25:17;3.40;;;3.10;;
1350;SDS011;669;50.206;9.998;2022-10-30T07:27:47;3.13;;;2.93;;
1350;SDS011;669;50.206;9.998;2022-10-30T07:30:16;2.87;;;2.67;;
1350;SDS011;669;50.206;9.998;2022-10-30T07:32:47;3.23;;;3.00;;
1350;SDS011;669;50.206;9.998;2022-10-30T07:35:23;2.60;;;2.40;;
1350;SDS011;669;50.206;9.998;2022-10-30T07:37:51;2.80;;;2.57;;
1350;SDS011;669;50.206;9.998;2022-10-30T07:40:19;2.30;;;2.20;;
1350;SDS011;669;50.206;9.998;2022-10-30T07:42:49;3.23;;;3.03;;
1350;SDS011;669;50.206;9.998;2022-10-30T07:45:22;2.57;;;2.47;;
1350;SDS011;669;50.206;9.998;2022-10-30T07:47:50;2.90;;;2.70;;
1350;SDS011;669;50.206;9.998;2022-10-30T07:50:18;3.00;;;2.80;;
1350;SDS011;669;50.206;9.998;2022-10-30T07:52:47;4.33;;;3.93;;
1350;SDS011;669;50.206;9.998;2022-10-30T07:55:15;4.87;;;3.70;;
1350;SDS011;669;50.206;9.998;2022-10-30T07:57:43;4.20;;;3.80;;
1350;SDS011;669;50.206;9.998;2022-10-30T08:00:13;3.87;;;3.57;;
1350;SDS011;669;50.206;9.998;2022-10-30T08:02:41;4.60;;;4.20;;
1350;SDS011;669;50.206;9.998;2022-10-30T08:05:09;4.60;;;4.20;;
1350;SDS011;669;50.206;9.998;2022-10-30T08:07:37;3.80;;;3.50;;
1350;SDS011;669;50.206;9.998;2022-10-30T08:10:06;4.00;;;3.60;;
1350;SDS011;669;50.206;9.998;2022-10-30T08:12:34;4.00;;;3.70;;
1350;SDS011;669;50.206;9.998;2022-10-30T08:15:03;4.93;;;4.53;;
1350;SDS011;669;50.206;9.998;2022-10-30T08:17:34;7.87;;;5.83;;
1350;SDS011;669;50.206;9.998;2022-10-30T08:20:08;4.93;;;4.27;;
1350;SDS011;669;50.206;9.998;2022-10-30T08:22:43;8.13;;;6.07;;
1350;SDS011;669;50.206;9.998;2022-10-30T08:25:11;7.47;;;5.47;;
1350;SDS011;669;50.206;9.998;2022-10-30T08:27:47;8.70;;;5.83;;
1350;SDS011;669;50.206;9.998;2022-10-30T08:30:16;7.47;;;5.00;;
1350;SDS011;669;50.206;9.998;2022-10-30T08:32:46;6.70;;;6.00;;
1350;SDS011;669;50.206;9.998;2022-10-30T08:35:14;5.50;;;4.93;;
1350;SDS011;669;50.206;9.998;2022-10-30T08:37:45;5.80;;;5.30;;
1350;SDS011;669;50.206;9.998;2022-10-30T08:40:13;8.57;;;5.47;;
1350;SDS011;669;50.206;9.998;2022-10-30T08:42:41;4.97;;;4.50;;
1350;SDS011;669;50.206;9.998;2022-10-30T08:45:09;5.43;;;4.93;;
1350;SDS011;669;50.206;9.998;2022-10-30T08:47:37;4.90;;;4.50;;
1350;SDS011;669;50.206;9.998;2022-10-30T08:50:07;5.10;;;4.60;;
1350;SDS011;669;50.206;9.998;2022-10-30T08:52:35;4.97;;;4.57;;
1350;SDS011;669;50.206;9.998;2022-10-30T08:55:03;7.87;;;4.90;;
1350;SDS011;669;50.206;9.998;2022-10-30T08:57:34;5.80;;;4.20;;
1350;SDS011;669;50.206;9.998;2022-10-30T09:00:02;5.17;;;4.10;;
1350;SDS011;669;50.206;9.998;2022-10-30T09:02:31;6.00;;;5.40;;
1350;SDS011;669;50.206;9.998;2022-10-30T09:04:59;4.90;;;4.50;;
1350;SDS011;669;50.206;9.998;2022-10-30T09:07:28;6.57;;;5.10;;
1350;SDS011;669;50.206;9.998;2022-10-30T09:09:57;4.57;;;4.17;;
1350;SDS011;669;50.206;9.998;2022-10-30T09:12:25;5.47;;;4.87;;
1350;SDS011;669;50.206;9.998;2022-10-30T09:14:54;5.10;;;4.70;;
1350;SDS011;669;50.206;9.998;2022-10-30T09:17:22;4.90;;;4.40;;
1350;SDS011;669;50.206;9.998;2022-10-30T09:19:50;4.47;;;4.00;;
1350;SDS011;669;50.206;9.998;2022-10-30T09:22:17;5.70;;;4.20;;
1350;SDS011;669;50.206;9.998;2022-10-30T09:24:47;8.80;;;5.63;;
1350;SDS011;669;50.206;9.998;2022-10-30T09:27:15;4.70;;;4.30;;
1350;SDS011;669;50.206;9.998;2022-10-30T09:29:42;7.17;;;5.77;;
1350;SDS011;669;50.206;9.998;2022-10-30T09:32:10;6.07;;;5.47;;
1350;SDS011;669;50.206;9.998;2022-10-30T09:34:38;5.37;;;4.87;;
1350;SDS011;669;50.206;9.998;2022-10-30T09:37:06;7.43;;;5.23;;
1350;SDS011;669;50.206;9.998;2022-10-30T09:39:34;9.30;;;5.57;;
1350;SDS011;669;50.206;9.998;2022-10-30T09:42:07;7.37;;;5.53;;
1350;SDS011;669;50.206;9.998;2022-10-30T09:44:53;5.97;;;5.43;;
1350;SDS011;669;50.206;9.998;2022-10-30T09:47:54;9.13;;;6.27;;
1350;SDS011;669;50.206;9.998;2022-10-30T09:50:38;5.80;;;5.30;;
1350;SDS011;669;50.206;9.998;2022-10-30T09:53:14;4.90;;;4.50;;
1350;SDS011;669;50.206;9.998;2022-10-30T09:55:50;8.73;;;5.40;;
1350;SDS011;669;50.206;9.998;2022-10-30T09:58:29;8.03;;;5.60;;
1350;SDS011;669;50.206;9.998;2022-10-30T10:01:06;7.57;;;5.40;;
1350;SDS011;669;50.206;9.998;2022-10-30T10:03:44;9.03;;;7.10;;
1350;SDS011;669;50.206;9.998;2022-10-30T10:06:19;7.27;;;5.13;;
1350;SDS011;669;50.206;9.998;2022-10-30T10:08:48;8.00;;;5.97;;
1350;SDS011;669;50.206;9.998;2022-10-30T10:11:21;5.43;;;4.93;;
1350;SDS011;669;50.206;9.998;2022-10-30T10:13:55;6.97;;;5.60;;
1350;SDS011;669;50.206;9.998;2022-10-30T10:16:28;6.27;;;5.67;;
1350;SDS011;669;50.206;9.998;2022-10-30T10:19:03;8.33;;;5.00;;
1350;SDS011;669;50.206;9.998;2022-10-30T10:21:38;6.83;;;5.40;;
1350;SDS011;669;50.206;9.998;2022-10-30T10:24:12;5.97;;;4.90;;
1350;SDS011;669;50.206;9.998;2022-10-30T10:26:46;6.47;;;4.73;;
1350;SDS011;669;50.206;9.998;2022-10-30T10:32:23;6.00;;;4.67;;
1350;SDS011;669;50.206;9.998;2022-10-30T10:35:17;5.17;;;3.90;;
1350;SDS011;669;50.206;9.998;2022-10-30T10:38:04;4.50;;;4.07;;
1350;SDS011;669;50.206;9.998;2022-10-30T10:40:44;7.40;;;4.60;;
1350;SDS011;669;50.206;9.998;2022-10-30T10:43:23;5.70;;;5.10;;
1350;SDS011;669;50.206;9.998;2022-10-30T10:46:08;6.00;;;4.67;;
1350;SDS011;669;50.206;9.998;2022-10-30T10:48:54;7.43;;;4.70;;
1350;SDS011;669;50.206;9.998;2022-10-30T10:51:33;6.40;;;5.13;;
1350;SDS011;669;50.206;9.998;2022-10-30T10:54:07;6.30;;;5.43;;
1350;SDS011;669;50.206;9.998;2022-10-30T10:56:39;8.60;;;4.60;;
1350;SDS011;669;50.206;9.998;2022-10-30T10:59:12;6.07;;;5.33;;
1350;SDS011;669;50.206;9.998;2022-10-30T11:01:48;7.33;;;4.80;;
1350;SDS011;669;50.206;9.998;2022-10-30T11:04:23;5.17;;;4.03;;
1350;SDS011;669;50.206;9.998;2022-10-30T11:06:56;8.97;;;5.07;;
1350;SDS011;669;50.206;9.998;2022-10-30T11:09:25;7.00;;;5.63;;
1350;SDS011;669;50.206;9.998;2022-10-30T11:11:53;6.90;;;4.77;;
1350;SDS011;669;50.206;9.998;2022-10-30T11:14:22;13.53;;;4.93;;
1350;SDS011;669;50.206;9.998;2022-10-30T11:17:00;4.33;;;3.77;;
1350;SDS011;669;50.206;9.998;2022-10-30T11:19:32;4.70;;;4.07;;
1350;SDS011;669;50.206;9.998;2022-10-30T11:22:00;8.00;;;4.70;;
1350;SDS011;669;50.206;9.998;2022-10-30T11:24:36;5.77;;;4.70;;
1350;SDS011;669;50.206;9.998;2022-10-30T11:27:15;6.23;;;4.87;;
1350;SDS011;669;50.206;9.998;2022-10-30T11:29:48;7.73;;;5.10;;
1350;SDS011;669;50.206;9.998;2022-10-30T11:32:20;6.43;;;4.57;;
1350;SDS011;669;50.206;9.998;2022-10-30T11:34:59;10.60;;;5.43;;
1350;SDS011;669;50.206;9.998;2022-10-30T11:37:28;6.20;;;4.77;;
1350;SDS011;669;50.206;9.998;2022-10-30T11:40:00;9.87;;;6.20;;
1350;SDS011;669;50.206;9.998;2022-10-30T11:42:30;8.80;;;4.60;;
1350;SDS011;669;50.206;9.998;2022-10-30T11:44:58;7.77;;;5.80;;
1350;SDS011;669;50.206;9.998;2022-10-30T11:47:29;7.57;;;5.03;;
1350;SDS011;669;50.206;9.998;2022-10-30T11:50:00;7.50;;;4.90;;
1350;SDS011;669;50.206;9.998;2022-10-30T11:52:34;7.13;;;5.30;;
1350;SDS011;669;50.206;9.998;2022-10-30T11:55:08;9.13;;;4.43;;
1350;SDS011;669;50.206;9.998;2022-10-30T11:57:40;13.33;;;5.63;;
1350;SDS011;669;50.206;9.998;2022-10-30T12:00:13;13.17;;;6.43;;
1350;SDS011;669;50.206;9.998;2022-10-30T12:02:46;11.87;;;4.77;;
1350;SDS011;669;50.206;9.998;2022-10-30T12:08:15;7.53;;;3.97;;
1350;SDS011;669;50.206;9.998;2022-10-30T12:10:45;8.73;;;4.10;;
1350;SDS011;669;50.206;9.998;2022-10-30T12:13:21;8.80;;;4.20;;
1350;SDS011;669;50.206;9.998;2022-10-30T12:16:02;4.53;;;3.50;;
1350;SDS011;669;50.206;9.998;2022-10-30T12:18:36;6.07;;;3.90;;
1350;SDS011;669;50.206;9.998;2022-10-30T12:21:05;6.70;;;4.83;;
1350;SDS011;669;50.206;9.998;2022-10-30T12:23:34;5.50;;;4.40;;
1350;SDS011;669;50.206;9.998;2022-10-30T12:26:06;6.30;;;3.80;;
1350;SDS011;669;50.206;9.998;2022-10-30T12:28:36;4.87;;;3.70;;
1350;SDS011;669;50.206;9.998;2022-10-30T12:31:08;5.80;;;4.03;;
1350;SDS011;669;50.206;9.998;2022-10-30T12:33:40;8.00;;;3.90;;
1350;SDS011;669;50.206;9.998;2022-10-30T12:36:12;7.03;;;4.60;;
1350;SDS011;669;50.206;9.998;2022-10-30T12:38:46;5.47;;;3.70;;
1350;SDS011;669;50.206;9.998;2022-10-30T12:41:17;5.87;;;4.60;;
1350;SDS011;669;50.206;9.998;2022-10-30T12:43:51;10.13;;;4.80;;
1350;SDS011;669;50.206;9.998;2022-10-30T12:46:29;5.90;;;4.00;;
1350;SDS011;669;50.206;9.998;2022-10-30T12:49:05;6.97;;;4.50;;
1350;SDS011;669;50.206;9.998;2022-10-30T12:51:40;6.57;;;3.50;;
1350;SDS011;669;50.206;9.998;2022-10-30T12:54:16;4.50;;;3.80;;
1350;SDS011;669;50.206;9.998;2022-10-30T12:56:53;5.90;;;4.33;;
1350;SDS011;669;50.206;9.998;2022-10-30T12:59:31;6.57;;;3.70;;
1350;SDS011;669;50.206;9.998;2022-10-30T13:02:07;6.53;;;4.10;;
1350;SDS011;669;50.206;9.998;2022-10-30T13:04:43;5.77;;;4.60;;
1350;SDS011;669;50.206;9.998;2022-10-30T13:07:16;14.63;;;4.43;;
1350;SDS011;669;50.206;9.998;2022-10-30T13:09:55;5.27;;;3.33;;
1350;SDS011;669;50.206;9.998;2022-10-30T13:12:32;6.40;;;3.93;;
1350;SDS011;669;50.206;9.998;2022-10-30T13:15:04;7.20;;;4.00;;
1350;SDS011;669;50.206;9.998;2022-10-30T13:17:36;6.50;;;3.90;;
1350;SDS011;669;50.206;9.998;2022-10-30T13:20:07;4.40;;;3.70;;
1350;SDS011;669;50.206;9.998;2022-10-30T13:22:39;5.70;;;3.30;;
1350;SDS011;669;50.206;9.998;2022-10-30T13:25:13;7.80;;;3.80;;
1350;SDS011;669;50.206;9.998;2022-10-30T13:27:47;4.33;;;3.53;;
1350;SDS011;669;50.206;9.998;2022-10-30T13:30:21;10.07;;;4.23;;
1350;SDS011;669;50.206;9.998;2022-10-30T13:32:56;5.53;;;3.57;;
1350;SDS011;669;50.206;9.998;2022-10-30T13:35:36;4.93;;;3.63;;
1350;SDS011;669;50.206;9.998;2022-10-30T13:38:28;5.13;;;3.70;;
1350;SDS011;669;50.206;9.998;2022-10-30T13:41:07;8.23;;;3.70;;
1350;SDS011;669;50.206;9.998;2022-10-30T13:43:41;6.00;;;3.30;;
1350;SDS011;669;50.206;9.998;2022-10-30T13:46:25;6.83;;;4.70;;
1350;SDS011;669;50.206;9.998;2022-10-30T13:49:00;5.33;;;3.63;;
1350;SDS011;669;50.206;9.998;2022-10-30T13:51:38;7.07;;;3.67;;
1350;SDS011;669;50.206;9.998;2022-10-30T13:54:13;5.57;;;3.63;;
1350;SDS011;669;50.206;9.998;2022-10-30T13:56:45;7.93;;;4.00;;
1350;SDS011;669;50.206;9.998;2022-10-30T13:59:21;4.87;;;3.70;;
1350;SDS011;669;50.206;9.998;2022-10-30T14:01:58;4.40;;;3.47;;
1350;SDS011;669;50.206;9.998;2022-10-30T14:04:32;3.67;;;3.27;;
1350;SDS011;669;50.206;9.998;2022-10-30T14:07:10;6.80;;;3.63;;
1350;SDS011;669;50.206;9.998;2022-10-30T14:09:51;5.40;;;4.20;;
1350;SDS011;669;50.206;9.998;2022-10-30T14:12:41;6.90;;;4.20;;
1350;SDS011;669;50.206;9.998;2022-10-30T14:15:15;6.80;;;3.40;;
1350;SDS011;669;50.206;9.998;2022-10-30T14:21:24;5.70;;;3.30;;
1350;SDS011;669;50.206;9.998;2022-10-30T14:24:02;6.90;;;3.93;;
1350;SDS011;669;50.206;9.998;2022-10-30T14:26:36;7.47;;;3.83;;
1350;SDS011;669;50.206;9.998;2022-10-30T14:35:01;7.80;;;3.70;;
1350;SDS011;669;50.206;9.998;2022-10-30T14:37:53;6.50;;;3.60;;
1350;SDS011;669;50.206;9.998;2022-10-30T14:40:31;5.87;;;3.67;;
1350;SDS011;669;50.206;9.998;2022-10-30T14:43:05;6.83;;;4.00;;
1350;SDS011;669;50.206;9.998;2022-10-30T14:45:40;7.03;;;4.03;;
1350;SDS011;669;50.206;9.998;2022-10-30T14:48:15;3.73;;;3.30;;
1350;SDS011;669;50.206;9.998;2022-10-30T14:50:56;7.10;;;3.77;;
1350;SDS011;669;50.206;9.998;2022-10-30T14:53:33;4.13;;;3.73;;
1350;SDS011;669;50.206;9.998;2022-10-30T14:56:17;7.90;;;3.93;;
1350;SDS011;669;50.206;9.998;2022-10-30T14:59:07;4.30;;;3.63;;
1350;SDS011;669;50.206;9.998;2022-10-30T15:01:40;6.43;;;3.97;;
1350;SDS011;669;50.206;9.998;2022-10-30T15:04:18;3.47;;;3.17;;
1350;SDS011;669;50.206;9.998;2022-10-30T15:06:53;7.93;;;3.30;;
1350;SDS011;669;50.206;9.998;2022-10-30T15:09:36;3.60;;;3.30;;
1350;SDS011;669;50.206;9.998;2022-10-30T15:12:23;4.30;;;3.30;;
1350;SDS011;669;50.206;9.998;2022-10-30T15:15:09;5.03;;;3.27;;
1350;SDS011;669;50.206;9.998;2022-10-30T15:17:40;3.80;;;3.47;;
1350;SDS011;669;50.206;9.998;2022-10-30T15:20:13;3.90;;;3.20;;
1350;SDS011;669;50.206;9.998;2022-10-30T15:22:44;4.50;;;4.07;;
1350;SDS011;669;50.206;9.998;2022-10-30T15:25:17;3.80;;;3.50;;
1350;SDS011;669;50.206;9.998;2022-10-30T15:27:48;4.70;;;3.30;;
1350;SDS011;669;50.206;9.998;2022-10-30T15:30:19;3.80;;;3.20;;
1350;SDS011;669;50.206;9.998;2022-10-30T15:32:49;3.90;;;3.07;;
1350;SDS011;669;50.206;9.998;2022-10-30T15:35:18;3.60;;;3.30;;
1350;SDS011;669;50.206;9.998;2022-10-30T15:37:57;3.30;;;2.73;;
1350;SDS011;669;50.206;9.998;2022-10-30T15:40:30;3.70;;;3.40;;
1350;SDS011;669;50.206;9.998;2022-10-30T15:43:00;3.90;;;3.57;;
1350;SDS011;669;50.206;9.998;2022-10-30T15:45:32;2.60;;;2.40;;
1350;SDS011;669;50.206;9.998;2022-10-30T15:48:03;4.43;;;3.10;;
1350;SDS011;669;50.206;9.998;2022-10-30T15:50:33;3.13;;;2.87;;
1350;SDS011;669;50.206;9.998;2022-10-30T15:53:04;4.37;;;3.97;;
1350;SDS011;669;50.206;9.998;2022-10-30T15:55:33;3.40;;;3.10;;
1350;SDS011;669;50.206;9.998;2022-10-30T15:58:03;4.40;;;4.00;;
1350;SDS011;669;50.206;9.998;2022-10-30T16:00:32;4.20;;;3.70;;
1350;SDS011;669;50.206;9.998;2022-10-30T16:03:03;4.40;;;4.00;;
1350;SDS011;669;50.206;9.998;2022-10-30T16:05:33;5.67;;;4.60;;
1350;SDS011;669;50.206;9.998;2022-10-30T16:08:02;5.37;;;3.87;;
1350;SDS011;669;50.206;9.998;2022-10-30T16:10:36;3.93;;;3.37;;
1350;SDS011;669;50.206;9.998;2022-10-30T16:13:10;4.80;;;3.97;;
1350;SDS011;669;50.206;9.998;2022-10-30T16:15:41;3.37;;;3.10;;